createdAt,value
2018-04-17T00:00:12.234Z,11.81
2018-04-17T00:02:41.267Z,11.83
2018-04-17T00:05:09.536Z,11.78
2018-04-17T00:07:38.572Z,11.71
2018-04-17T00:10:06.844Z,11.62
2018-04-17T00:12:35.119Z,11.56
2018-04-17T00:15:04.179Z,11.48
2018-04-17T00:17:32.450Z,11.46
2018-04-17T00:20:00.748Z,11.47
2018-04-17T00:22:29.024Z,11.50
2018-04-17T00:24:57.284Z,11.53
2018-04-17T00:27:25.539Z,11.51
2018-04-17T00:29:53.815Z,11.47
2018-04-17T00:32:22.099Z,11.45
2018-04-17T00:34:50.354Z,11.43
2018-04-17T00:37:19.383Z,11.38
2018-04-17T00:39:47.641Z,11.33
2018-04-17T00:42:15.911Z,11.28
2018-04-17T00:44:44.196Z,11.27
2018-04-17T00:47:12.455Z,11.21
2018-04-17T00:49:40.734Z,11.18
2018-04-17T00:52:08.996Z,11.14
2018-04-17T00:54:38.047Z,11.09
2018-04-17T00:57:06.301Z,11.10
2018-04-17T00:59:35.404Z,11.11
2018-04-17T01:02:03.665Z,11.09
2018-04-17T01:04:31.923Z,11.05
2018-04-17T01:07:00.254Z,11.07
2018-04-17T01:09:28.516Z,11.03
2018-04-17T01:11:56.781Z,10.98
2018-04-17T01:14:25.055Z,10.97
2018-04-17T01:16:54.075Z,10.93
2018-04-17T01:19:22.340Z,10.91
2018-04-17T01:21:51.389Z,10.92
2018-04-17T01:24:19.660Z,10.90
2018-04-17T01:26:47.911Z,10.89
2018-04-17T01:29:16.175Z,10.88
2018-04-17T01:31:44.438Z,10.87
2018-04-17T01:34:12.712Z,10.84
2018-04-17T01:36:41.754Z,10.86
2018-04-17T01:39:10.024Z,10.88
2018-04-17T01:41:38.283Z,10.86
2018-04-17T01:44:07.327Z,10.83
2018-04-17T01:46:35.592Z,10.78
2018-04-17T01:49:04.612Z,10.73
2018-04-17T01:51:32.909Z,10.70
2018-04-17T01:54:01.173Z,10.67
2018-04-17T01:56:30.238Z,10.65
2018-04-17T01:58:59.319Z,10.65
2018-04-17T02:01:27.579Z,10.67
2018-04-17T02:03:56.612Z,10.66
2018-04-17T02:06:24.882Z,10.62
2018-04-17T02:08:53.158Z,10.57
2018-04-17T02:11:22.176Z,10.54
2018-04-17T02:13:51.219Z,10.49
2018-04-17T02:16:19.477Z,10.46
2018-04-17T02:18:48.503Z,10.44
2018-04-17T02:21:16.767Z,10.42
2018-04-17T02:23:45.800Z,10.41
2018-04-17T02:26:14.103Z,10.38
2018-04-17T02:28:42.380Z,10.40
2018-04-17T02:31:10.625Z,10.40
2018-04-17T02:33:38.891Z,10.38
2018-04-17T02:36:07.168Z,10.33
2018-04-17T02:38:35.427Z,10.34
2018-04-17T02:41:04.460Z,10.37
2018-04-17T02:43:32.734Z,10.34
2018-04-17T02:46:00.993Z,10.33
2018-04-17T02:48:30.043Z,10.27
2018-04-17T02:50:58.320Z,10.24
2018-04-17T02:53:26.591Z,10.22
2018-04-17T02:55:55.619Z,10.16
2018-04-17T02:58:23.928Z,10.18
2018-04-17T03:00:52.188Z,10.18
2018-04-17T03:03:21.196Z,10.12
2018-04-17T03:05:50.340Z,10.07
2018-04-17T03:08:18.592Z,10.04
2018-04-17T03:10:46.859Z,9.98
2018-04-17T03:13:15.124Z,10.05
2018-04-17T03:15:43.389Z,10.10
2018-04-17T03:18:11.655Z,10.15
2018-04-17T03:20:39.926Z,10.26
2018-04-17T03:23:08.960Z,10.30
2018-04-17T03:25:37.214Z,10.32
2018-04-17T03:28:05.508Z,10.34
2018-04-17T03:30:33.785Z,10.39
2018-04-17T03:33:02.226Z,10.37
2018-04-17T03:35:30.499Z,10.40
2018-04-17T03:37:59.525Z,10.44
2018-04-17T03:40:27.800Z,10.40
2018-04-17T03:42:56.844Z,10.57
2018-04-17T03:45:25.103Z,10.58
2018-04-17T03:47:53.375Z,10.55
2018-04-17T03:50:22.443Z,10.61
2018-04-17T03:52:50.691Z,10.60
2018-04-17T03:55:18.973Z,10.61
2018-04-17T03:57:48.213Z,10.64
2018-04-17T04:00:16.483Z,10.62
2018-04-17T04:02:44.747Z,10.69
2018-04-17T04:05:13.011Z,10.66
2018-04-17T04:07:41.283Z,10.60
2018-04-17T04:10:09.748Z,10.61
2018-04-17T04:12:38.012Z,10.56
2018-04-17T04:15:07.043Z,10.57
2018-04-17T04:17:53.004Z,10.51
2018-04-17T04:20:38.703Z,10.50
2018-04-17T04:23:24.546Z,10.48
2018-04-17T04:26:10.436Z,10.40
2018-04-17T04:28:39.475Z,10.36
2018-04-17T04:31:07.731Z,10.38
2018-04-17T04:33:36.778Z,10.41
2018-04-17T04:36:05.045Z,10.37
2018-04-17T04:38:33.336Z,10.33
2018-04-17T04:41:01.611Z,10.30
2018-04-17T04:43:30.665Z,10.30
2018-04-17T04:45:58.922Z,10.34
2018-04-17T04:48:27.202Z,10.39
2018-04-17T04:50:56.230Z,10.35
2018-04-17T04:53:24.495Z,10.33
2018-04-17T04:55:53.550Z,10.31
2018-04-17T04:58:21.809Z,10.36
2018-04-17T05:00:50.068Z,10.47
2018-04-17T05:03:18.354Z,10.47
2018-04-17T05:05:46.613Z,10.45
2018-04-17T05:08:14.883Z,10.43
2018-04-17T05:10:43.157Z,10.50
2018-04-17T05:13:11.443Z,10.48
2018-04-17T05:15:39.704Z,10.49
2018-04-17T05:18:07.963Z,10.58
2018-04-17T05:20:36.250Z,10.59
2018-04-17T05:23:04.506Z,10.76
2018-04-17T05:25:33.579Z,10.88
2018-04-17T05:28:01.864Z,11.04
2018-04-17T05:30:30.247Z,11.17
2018-04-17T05:32:58.499Z,11.21
2018-04-17T05:35:26.840Z,11.29
2018-04-17T05:37:55.093Z,11.48
2018-04-17T05:40:23.352Z,11.66
2018-04-17T05:42:51.667Z,11.64
2018-04-17T05:45:19.931Z,11.73
2018-04-17T05:47:48.967Z,11.93
2018-04-17T05:50:17.249Z,12.09
2018-04-17T05:52:45.533Z,12.31
2018-04-17T05:55:13.793Z,12.36
2018-04-17T05:57:42.892Z,12.48
2018-04-17T06:00:11.157Z,12.87
2018-04-17T06:02:39.448Z,12.75
2018-04-17T06:05:07.726Z,13.11
2018-04-17T06:07:36.004Z,13.28
2018-04-17T06:10:04.316Z,13.36
2018-04-17T06:12:32.608Z,13.45
2018-04-17T06:15:00.870Z,13.83
2018-04-17T06:17:30.189Z,13.94
2018-04-17T06:19:58.624Z,14.10
2018-04-17T06:22:26.881Z,13.70
2018-04-17T06:24:55.142Z,13.67
2018-04-17T06:27:23.425Z,14.17
2018-04-17T06:29:51.688Z,14.52
2018-04-17T06:32:19.969Z,14.65
2018-04-17T06:34:48.258Z,14.73
2018-04-17T06:37:16.516Z,14.93
2018-04-17T06:39:44.772Z,14.81
2018-04-17T06:42:13.819Z,15.16
2018-04-17T06:44:42.085Z,15.19
2018-04-17T06:47:10.346Z,15.19
2018-04-17T06:49:39.385Z,15.22
2018-04-17T06:52:07.666Z,15.25
2018-04-17T06:54:35.928Z,15.18
2018-04-17T06:57:04.332Z,15.39
2018-04-17T06:59:33.379Z,15.48
2018-04-17T07:02:01.662Z,15.72
2018-04-17T07:04:29.919Z,15.89
2018-04-17T07:06:58.956Z,16.36
2018-04-17T07:09:27.215Z,16.46
2018-04-17T07:11:56.279Z,16.36
2018-04-17T07:14:24.645Z,16.83
2018-04-17T07:16:53.036Z,16.86
2018-04-17T07:19:21.312Z,16.09
2018-04-17T07:21:50.354Z,16.94
2018-04-17T07:24:18.666Z,17.31
2018-04-17T07:26:46.945Z,17.91
2018-04-17T07:29:15.199Z,17.08
2018-04-17T07:31:43.468Z,18.22
2018-04-17T07:34:12.505Z,18.47
2018-04-17T07:36:40.769Z,19.06
2018-04-17T07:39:10.496Z,19.54
2018-04-17T07:41:39.556Z,19.65
2018-04-17T07:44:07.817Z,20.24
2018-04-17T07:46:36.076Z,19.96
2018-04-17T07:49:06.448Z,20.10
2018-04-17T07:51:34.711Z,20.54
2018-04-17T07:54:03.749Z,19.65
2018-04-17T07:56:32.035Z,19.72
2018-04-17T07:59:00.301Z,20.05
2018-04-17T08:01:29.329Z,19.84
2018-04-17T08:03:57.599Z,19.80
2018-04-17T08:06:25.864Z,19.77
2018-04-17T08:08:54.123Z,19.96
2018-04-17T08:11:22.400Z,20.20
2018-04-17T08:13:50.660Z,20.38
2018-04-17T08:16:19.739Z,20.45
2018-04-17T08:18:48.024Z,20.58
2018-04-17T08:21:16.285Z,21.47
2018-04-17T08:23:44.547Z,21.35
2018-04-17T08:26:12.819Z,21.92
2018-04-17T08:28:41.869Z,22.82
2018-04-17T08:31:10.123Z,22.95
2018-04-17T08:33:39.186Z,23.03
2018-04-17T08:36:07.461Z,22.92
2018-04-17T08:38:35.723Z,23.28
2018-04-17T08:41:04.059Z,23.07
2018-04-17T08:43:32.408Z,23.07
2018-04-17T08:46:00.717Z,23.35
2018-04-17T08:48:29.000Z,23.56
2018-04-17T08:50:57.270Z,23.48
2018-04-17T08:53:25.527Z,23.56
2018-04-17T08:55:53.796Z,23.37
2018-04-17T08:58:22.060Z,23.10
2018-04-17T09:00:50.327Z,23.64
2018-04-17T09:03:19.363Z,23.58
2018-04-17T09:05:47.634Z,23.92
2018-04-17T09:08:15.884Z,24.53
2018-04-17T09:10:44.184Z,24.68
2018-04-17T09:13:13.208Z,24.33
2018-04-17T09:15:41.471Z,24.53
2018-04-17T09:18:09.763Z,24.63
2018-04-17T09:20:38.050Z,24.80
2018-04-17T09:23:06.345Z,24.46
2018-04-17T09:25:34.636Z,24.37
2018-04-17T09:28:02.907Z,24.80
2018-04-17T09:30:31.172Z,24.79
2018-04-17T09:32:59.445Z,25.07
2018-04-17T09:35:27.704Z,24.75
2018-04-17T09:37:56.728Z,24.88
2018-04-17T09:40:25.026Z,25.24
2018-04-17T09:42:53.275Z,25.49
2018-04-17T09:45:21.540Z,24.79
2018-04-17T09:47:49.822Z,24.45
2018-04-17T09:50:18.076Z,25.31
2018-04-17T09:52:46.357Z,24.02
2018-04-17T09:55:15.397Z,23.72
2018-04-17T09:57:43.670Z,24.26
2018-04-17T10:00:11.929Z,24.69
2018-04-17T10:02:40.208Z,24.84
2018-04-17T10:05:08.467Z,25.00
2018-04-17T10:07:36.720Z,25.33
2018-04-17T10:10:05.008Z,24.58
2018-04-17T10:12:34.032Z,24.59
2018-04-17T10:15:02.304Z,25.14
2018-04-17T10:17:30.604Z,25.37
2018-04-17T10:19:59.716Z,24.05
2018-04-17T10:22:27.971Z,24.83
2018-04-17T10:24:56.248Z,24.74
2018-04-17T10:27:24.528Z,24.01
2018-04-17T10:29:52.822Z,24.55
2018-04-17T10:32:21.059Z,23.38
2018-04-17T10:34:49.335Z,23.70
2018-04-17T10:37:18.352Z,24.62
2018-04-17T10:39:46.689Z,24.42
2018-04-17T10:42:14.899Z,24.59
2018-04-17T10:44:43.174Z,24.13
2018-04-17T10:47:11.448Z,25.14
2018-04-17T10:49:39.723Z,24.60
2018-04-17T10:52:07.983Z,25.11
2018-04-17T10:54:37.026Z,24.58
2018-04-17T10:57:05.287Z,24.69
2018-04-17T10:59:34.351Z,25.33
2018-04-17T11:02:02.626Z,25.96
2018-04-17T11:04:30.953Z,26.10
2018-04-17T11:06:59.265Z,26.18
2018-04-17T11:09:28.299Z,25.53
2018-04-17T11:11:56.560Z,25.35
2018-04-17T11:14:25.597Z,25.44
2018-04-17T11:16:53.867Z,26.50
2018-04-17T11:19:22.129Z,26.77
2018-04-17T11:21:50.385Z,26.34
2018-04-17T11:24:18.646Z,26.50
2018-04-17T11:26:48.923Z,25.80
2018-04-17T11:29:17.268Z,26.64
2018-04-17T11:31:45.528Z,27.09
2018-04-17T11:34:14.572Z,27.32
2018-04-17T11:36:42.829Z,26.84
2018-04-17T11:39:11.882Z,26.33
2018-04-17T11:41:40.136Z,24.65
2018-04-17T11:44:09.239Z,25.40
2018-04-17T11:46:38.752Z,25.03
2018-04-17T11:49:08.443Z,25.66
2018-04-17T11:51:36.712Z,25.96
2018-04-17T11:54:04.992Z,26.48
2018-04-17T11:56:33.273Z,26.40
2018-04-17T11:59:01.624Z,26.28
2018-04-17T12:01:29.942Z,26.50
2018-04-17T12:03:58.224Z,26.62
2018-04-17T12:06:27.247Z,26.82
2018-04-17T12:08:55.535Z,26.57
2018-04-17T12:11:23.790Z,26.53
2018-04-17T12:13:52.043Z,26.39
2018-04-17T12:16:20.320Z,26.80
2018-04-17T12:18:48.604Z,26.54
2018-04-17T12:21:16.868Z,26.52
2018-04-17T12:23:45.904Z,26.09
2018-04-17T12:26:14.169Z,25.69
2018-04-17T12:28:43.197Z,26.17
2018-04-17T12:31:11.469Z,26.17
2018-04-17T12:33:40.492Z,26.53
2018-04-17T12:36:08.782Z,24.90
2018-04-17T12:38:37.051Z,24.43
2018-04-17T12:41:06.080Z,25.94
2018-04-17T12:43:34.355Z,25.21
2018-04-17T12:46:03.676Z,25.89
2018-04-17T12:48:31.959Z,26.07
2018-04-17T12:51:01.036Z,25.12
2018-04-17T12:53:29.323Z,26.32
2018-04-17T12:55:57.606Z,26.35
2018-04-17T12:58:25.859Z,26.17
2018-04-17T13:00:54.133Z,25.76
2018-04-17T13:03:23.170Z,25.99
2018-04-17T13:05:51.536Z,26.28
2018-04-17T13:08:20.584Z,26.40
2018-04-17T13:10:48.834Z,26.84
2018-04-17T13:13:17.107Z,26.58
2018-04-17T13:15:46.175Z,26.92
2018-04-17T13:18:14.455Z,26.86
2018-04-17T13:20:42.721Z,26.03
2018-04-17T13:23:10.984Z,25.84
2018-04-17T13:25:40.013Z,25.87
2018-04-17T13:28:08.267Z,25.69
2018-04-17T13:30:36.534Z,26.13
2018-04-17T13:33:04.808Z,26.56
2018-04-17T13:35:33.080Z,25.49
2018-04-17T13:38:01.432Z,25.59
2018-04-17T13:40:29.701Z,25.89
2018-04-17T13:42:57.973Z,26.23
2018-04-17T13:45:26.248Z,26.62
2018-04-17T13:47:54.525Z,26.34
2018-04-17T13:50:22.784Z,25.39
2018-04-17T13:52:51.106Z,25.71
2018-04-17T13:55:19.393Z,26.01
2018-04-17T13:57:47.650Z,25.65
2018-04-17T14:00:15.920Z,24.46
2018-04-17T14:02:44.201Z,25.22
2018-04-17T14:05:12.451Z,24.38
2018-04-17T14:07:40.723Z,25.14
2018-04-17T14:10:09.747Z,25.13
2018-04-17T14:12:38.027Z,24.96
2018-04-17T14:15:07.059Z,25.35
2018-04-17T14:17:35.327Z,25.41
2018-04-17T14:20:04.384Z,25.63
2018-04-17T14:22:32.654Z,25.11
2018-04-17T14:25:00.928Z,25.09
2018-04-17T14:27:29.204Z,24.90
2018-04-17T14:29:57.492Z,24.62
2018-04-17T14:32:26.519Z,24.94
2018-04-17T14:34:54.795Z,25.32
2018-04-17T14:37:23.870Z,25.39
2018-04-17T14:39:52.135Z,25.61
2018-04-17T14:42:20.391Z,25.76
2018-04-17T14:44:48.672Z,25.41
2018-04-17T14:47:16.928Z,25.22
2018-04-17T14:49:45.211Z,25.18
2018-04-17T14:52:13.480Z,24.90
2018-04-17T14:54:41.833Z,24.67
2018-04-17T14:57:10.056Z,24.65
2018-04-17T14:59:38.335Z,24.84
2018-04-17T15:02:06.595Z,24.67
2018-04-17T15:04:35.620Z,25.01
2018-04-17T15:07:03.920Z,25.01
2018-04-17T15:09:32.200Z,24.96
2018-04-17T15:12:00.512Z,24.57
2018-04-17T15:14:28.798Z,24.29
2018-04-17T15:16:57.067Z,24.54
2018-04-17T15:19:25.357Z,24.57
2018-04-17T15:21:53.725Z,24.57
2018-04-17T15:24:21.943Z,24.47
2018-04-17T15:26:50.358Z,24.50
2018-04-17T15:29:19.507Z,24.50
2018-04-17T15:31:47.774Z,24.19
2018-04-17T15:34:16.048Z,24.23
2018-04-17T15:36:44.316Z,24.09
2018-04-17T15:39:12.584Z,24.13
2018-04-17T15:41:41.601Z,24.15
2018-04-17T15:44:09.880Z,24.17
2018-04-17T15:46:38.902Z,23.76
2018-04-17T15:49:07.199Z,23.76
2018-04-17T15:51:35.489Z,23.64
2018-04-17T15:54:03.769Z,23.75
2018-04-17T15:56:32.103Z,23.68
2018-04-17T15:59:01.636Z,23.63
2018-04-17T16:01:30.005Z,23.64
2018-04-17T16:03:58.251Z,23.79
2018-04-17T16:06:27.316Z,23.77
2018-04-17T16:08:55.597Z,23.79
2018-04-17T16:11:23.850Z,23.84
2018-04-17T16:13:52.128Z,23.66
2018-04-17T16:16:21.170Z,23.63
2018-04-17T16:18:49.441Z,23.59
2018-04-17T16:21:17.707Z,23.45
2018-04-17T16:23:46.727Z,23.56
2018-04-17T16:26:14.999Z,23.60
2018-04-17T16:28:43.304Z,23.61
2018-04-17T16:31:12.321Z,23.50
2018-04-17T16:33:40.576Z,23.49
2018-04-17T16:36:08.839Z,23.56
2018-04-17T16:38:37.098Z,23.54
2018-04-17T16:41:05.375Z,23.50
2018-04-17T16:43:34.460Z,23.44
2018-04-17T16:46:03.147Z,23.40
2018-04-17T16:48:31.599Z,23.34
2018-04-17T16:50:59.925Z,23.41
2018-04-17T16:53:28.195Z,23.41
2018-04-17T16:55:56.449Z,23.40
2018-04-17T16:58:24.767Z,23.37
2018-04-17T17:00:53.053Z,23.36
2018-04-17T17:03:21.299Z,23.27
2018-04-17T17:05:50.356Z,23.31
2018-04-17T17:08:18.622Z,23.29
2018-04-17T17:10:46.896Z,23.23
2018-04-17T17:13:15.181Z,23.23
2018-04-17T17:15:44.212Z,23.10
2018-04-17T17:18:12.482Z,23.02
2018-04-17T17:20:41.523Z,22.95
2018-04-17T17:23:09.780Z,22.88
2018-04-17T17:25:38.810Z,22.85
2018-04-17T17:28:07.138Z,22.81
2018-04-17T17:30:35.402Z,22.76
2018-04-17T17:33:03.690Z,22.65
2018-04-17T17:35:31.963Z,22.61
2018-04-17T17:38:00.245Z,22.51
2018-04-17T17:40:29.281Z,22.41
2018-04-17T17:42:57.571Z,22.39
2018-04-17T17:45:25.823Z,22.48
2018-04-17T17:47:54.861Z,22.54
2018-04-17T17:50:23.152Z,22.63
2018-04-17T17:52:51.453Z,22.64
2018-04-17T17:55:19.745Z,22.80
2018-04-17T17:57:48.121Z,22.75
2018-04-17T18:00:16.408Z,22.73
2018-04-17T18:02:45.449Z,22.70
2018-04-17T18:05:13.735Z,22.66
2018-04-17T18:07:42.407Z,22.80
2018-04-17T18:10:11.844Z,22.65
2018-04-17T18:12:40.120Z,22.75
2018-04-17T18:15:08.442Z,22.87
2018-04-17T18:17:36.700Z,22.84
2018-04-17T18:20:05.089Z,23.05
2018-04-17T18:22:34.121Z,23.05
2018-04-17T18:25:02.455Z,22.99
2018-04-17T18:27:30.732Z,23.06
2018-04-17T18:29:59.028Z,22.98
2018-04-17T18:32:27.304Z,23.02
2018-04-17T18:34:55.572Z,23.16
2018-04-17T18:37:23.865Z,23.30
2018-04-17T18:39:52.158Z,23.30
2018-04-17T18:42:20.453Z,23.37
2018-04-17T18:44:48.725Z,23.36
2018-04-17T18:47:16.987Z,23.29
2018-04-17T18:49:46.076Z,23.00
2018-04-17T18:52:14.476Z,23.10
2018-04-17T18:54:45.820Z,23.00
2018-04-17T18:57:16.304Z,22.98
2018-04-17T18:59:45.315Z,22.90
2018-04-17T19:02:13.572Z,22.77
2018-04-17T19:04:42.665Z,22.75
2018-04-17T19:07:10.928Z,22.59
2018-04-17T19:09:39.213Z,22.02
2018-04-17T19:12:07.479Z,21.57
2018-04-17T19:14:35.943Z,21.23
2018-04-17T19:17:04.208Z,21.00
2018-04-17T19:19:32.471Z,20.71
2018-04-17T19:22:01.819Z,20.51
2018-04-17T19:24:30.934Z,20.32
2018-04-17T19:26:59.211Z,20.19
2018-04-17T19:29:27.456Z,20.14
2018-04-17T19:31:55.738Z,19.99
2018-04-17T19:34:24.051Z,19.89
2018-04-17T19:36:52.312Z,19.76
2018-04-17T19:39:21.347Z,19.67
2018-04-17T19:41:49.643Z,19.57
2018-04-17T19:44:17.900Z,19.44
2018-04-17T19:46:46.921Z,19.38
2018-04-17T19:49:15.199Z,19.30
2018-04-17T19:51:44.319Z,19.18
2018-04-17T19:54:13.359Z,19.09
2018-04-17T19:56:41.667Z,18.99
2018-04-17T19:59:09.983Z,18.91
2018-04-17T20:01:38.303Z,18.85
2018-04-17T20:04:06.859Z,18.76
2018-04-17T20:06:35.140Z,18.69
2018-04-17T20:09:03.483Z,18.65
2018-04-17T20:11:32.463Z,18.56
2018-04-17T20:14:00.795Z,18.53
2018-04-17T20:16:29.308Z,18.45
2018-04-17T20:18:57.672Z,18.36
2018-04-17T20:21:25.931Z,18.29
2018-04-17T20:23:54.977Z,18.25
2018-04-17T20:26:23.269Z,18.19
2018-04-17T20:28:51.588Z,18.15
2018-04-17T20:31:19.895Z,18.25
2018-04-17T20:33:48.219Z,18.65
2018-04-17T20:36:17.286Z,18.78
2018-04-17T20:38:45.570Z,18.81
2018-04-17T20:41:13.863Z,18.75
2018-04-17T20:43:42.124Z,18.70
2018-04-17T20:46:10.392Z,18.65
2018-04-17T20:48:40.809Z,18.60
2018-04-17T20:51:09.848Z,18.51
2018-04-17T20:53:38.104Z,18.40
2018-04-17T20:56:07.167Z,18.30
2018-04-17T20:58:36.563Z,18.22
2018-04-17T21:01:04.933Z,18.17
2018-04-17T21:03:33.300Z,18.13
2018-04-17T21:06:03.944Z,18.06
2018-04-17T21:08:32.442Z,17.95
2018-04-17T21:11:00.751Z,17.83
2018-04-17T21:13:29.791Z,17.75
2018-04-17T21:15:58.052Z,17.64
2018-04-17T21:18:27.110Z,17.55
2018-04-17T21:20:55.375Z,17.48
2018-04-17T21:23:23.720Z,17.42
2018-04-17T21:25:52.040Z,17.36
2018-04-17T21:28:21.070Z,17.26
2018-04-17T21:30:49.440Z,17.20
2018-04-17T21:33:18.476Z,17.11
2018-04-17T21:35:46.738Z,17.06
2018-04-17T21:38:15.774Z,17.00
2018-04-17T21:40:44.073Z,16.96
2018-04-17T21:43:12.331Z,16.91
2018-04-17T21:45:40.611Z,16.86
2018-04-17T21:48:09.740Z,16.80
2018-04-17T21:50:38.007Z,16.74
2018-04-17T21:53:07.039Z,16.68
2018-04-17T21:55:35.329Z,16.59
2018-04-17T21:58:03.615Z,16.53
2018-04-17T22:00:32.003Z,16.53
2018-04-17T22:03:00.274Z,16.45
2018-04-17T22:05:29.312Z,16.44
2018-04-17T22:07:57.573Z,16.42
2018-04-17T22:10:26.616Z,16.38
2018-04-17T22:12:54.886Z,16.39
2018-04-17T22:15:23.921Z,16.45
2018-04-17T22:17:52.192Z,16.51
2018-04-17T22:20:20.462Z,16.55
2018-04-17T22:22:49.485Z,16.53
2018-04-17T22:25:17.783Z,16.51
2018-04-17T22:27:46.061Z,16.47
2018-04-17T22:30:15.143Z,16.41
2018-04-17T22:32:43.428Z,16.34
2018-04-17T22:35:11.692Z,16.40
2018-04-17T22:37:39.980Z,16.46
2018-04-17T22:40:08.284Z,16.45
2018-04-17T22:42:36.548Z,16.36
2018-04-17T22:45:04.851Z,16.25
2018-04-17T22:47:33.294Z,16.20
2018-04-17T22:50:01.543Z,16.19
2018-04-17T22:52:29.804Z,16.15
2018-04-17T22:54:58.107Z,16.08
2018-04-17T22:57:26.402Z,15.97
2018-04-17T22:59:54.673Z,15.93
2018-04-17T23:02:22.970Z,15.98
2018-04-17T23:04:51.223Z,15.93
2018-04-17T23:07:20.285Z,15.86
2018-04-17T23:09:48.580Z,15.79
2018-04-17T23:12:16.851Z,15.74
2018-04-17T23:14:45.135Z,15.66
2018-04-17T23:17:13.457Z,15.60
2018-04-17T23:19:41.727Z,15.65
2018-04-17T23:22:10.020Z,15.74
2018-04-17T23:24:38.286Z,15.76
2018-04-17T23:27:06.589Z,15.76
2018-04-17T23:29:34.915Z,15.80
2018-04-17T23:32:03.246Z,15.76
2018-04-17T23:34:32.271Z,15.72
2018-04-17T23:37:00.532Z,15.74
2018-04-17T23:39:29.599Z,15.72
2018-04-17T23:41:57.857Z,15.68
2018-04-17T23:44:26.130Z,15.66
2018-04-17T23:46:55.168Z,15.64
2018-04-17T23:49:23.440Z,15.83
2018-04-17T23:51:51.696Z,15.90
2018-04-17T23:54:20.792Z,15.86
2018-04-17T23:56:49.065Z,15.83
2018-04-17T23:59:17.339Z,15.88
